sensor_id;sensor_type;location;lat;lon;timestamp;P1;durP1;ratioP1;P2;durP2;ratioP2
59145;SDS011;44928;53.074;6.646;2023-07-13T00:03:58;9.77;;;1.98;;
59145;SDS011;44928;53.074;6.646;2023-07-13T00:06:25;9.53;;;2.50;;
59145;SDS011;44928;53.074;6.646;2023-07-13T00:08:55;9.02;;;1.70;;
59145;SDS011;44928;53.074;6.646;2023-07-13T00:11:21;11.32;;;2.38;;
59145;SDS011;44928;53.074;6.646;2023-07-13T00:13:47;10.15;;;2.22;;
59145;SDS011;44928;53.074;6.646;2023-07-13T00:16:13;9.60;;;2.00;;
59145;SDS011;44928;53.074;6.646;2023-07-13T00:18:39;9.43;;;2.13;;
59145;SDS011;44928;53.074;6.646;2023-07-13T00:21:05;7.78;;;2.25;;
59145;SDS011;44928;53.074;6.646;2023-07-13T00:23:32;9.18;;;2.28;;
59145;SDS011;44928;53.074;6.646;2023-07-13T00:26:01;11.70;;;2.30;;
59145;SDS011;44928;53.074;6.646;2023-07-13T00:28:28;12.60;;;2.20;;
59145;SDS011;44928;53.074;6.646;2023-07-13T00:30:54;11.30;;;2.17;;
59145;SDS011;44928;53.074;6.646;2023-07-13T00:33:20;9.65;;;2.35;;
59145;SDS011;44928;53.074;6.646;2023-07-13T00:35:48;10.50;;;2.33;;
59145;SDS011;44928;53.074;6.646;2023-07-13T00:38:14;12.02;;;2.65;;
59145;SDS011;44928;53.074;6.646;2023-07-13T00:40:41;14.48;;;2.97;;
59145;SDS011;44928;53.074;6.646;2023-07-13T00:43:15;13.38;;;2.60;;
59145;SDS011;44928;53.074;6.646;2023-07-13T00:48:19;17.52;;;2.70;;
59145;SDS011;44928;53.074;6.646;2023-07-13T00:50:48;9.70;;;2.45;;
59145;SDS011;44928;53.074;6.646;2023-07-13T00:53:17;11.65;;;2.42;;
59145;SDS011;44928;53.074;6.646;2023-07-13T00:55:43;13.30;;;2.30;;
59145;SDS011;44928;53.074;6.646;2023-07-13T00:58:10;12.75;;;2.47;;
59145;SDS011;44928;53.074;6.646;2023-07-13T01:00:36;12.48;;;2.42;;
59145;SDS011;44928;53.074;6.646;2023-07-13T01:03:04;15.02;;;2.95;;
59145;SDS011;44928;53.074;6.646;2023-07-13T01:05:34;12.57;;;2.60;;
59145;SDS011;44928;53.074;6.646;2023-07-13T01:08:02;13.10;;;2.50;;
59145;SDS011;44928;53.074;6.646;2023-07-13T01:10:30;12.00;;;2.75;;
59145;SDS011;44928;53.074;6.646;2023-07-13T01:13:04;14.32;;;3.03;;
59145;SDS011;44928;53.074;6.646;2023-07-13T01:15:41;13.18;;;2.75;;
59145;SDS011;44928;53.074;6.646;2023-07-13T01:18:14;11.95;;;2.50;;
59145;SDS011;44928;53.074;6.646;2023-07-13T01:20:53;13.57;;;2.60;;
59145;SDS011;44928;53.074;6.646;2023-07-13T01:23:20;13.20;;;2.33;;
59145;SDS011;44928;53.074;6.646;2023-07-13T01:25:47;16.25;;;3.08;;
59145;SDS011;44928;53.074;6.646;2023-07-13T01:28:13;14.95;;;2.53;;
59145;SDS011;44928;53.074;6.646;2023-07-13T01:30:39;10.23;;;2.40;;
59145;SDS011;44928;53.074;6.646;2023-07-13T01:33:06;12.98;;;3.17;;
59145;SDS011;44928;53.074;6.646;2023-07-13T01:35:33;12.68;;;3.10;;
59145;SDS011;44928;53.074;6.646;2023-07-13T01:37:59;12.15;;;2.70;;
59145;SDS011;44928;53.074;6.646;2023-07-13T01:40:26;12.80;;;2.85;;
59145;SDS011;44928;53.074;6.646;2023-07-13T01:42:52;16.00;;;3.33;;
59145;SDS011;44928;53.074;6.646;2023-07-13T01:45:18;14.52;;;3.33;;
59145;SDS011;44928;53.074;6.646;2023-07-13T01:47:44;14.90;;;3.35;;
59145;SDS011;44928;53.074;6.646;2023-07-13T01:50:10;14.50;;;3.30;;
59145;SDS011;44928;53.074;6.646;2023-07-13T01:52:36;16.70;;;3.28;;
59145;SDS011;44928;53.074;6.646;2023-07-13T01:55:02;13.25;;;3.25;;
59145;SDS011;44928;53.074;6.646;2023-07-13T01:57:28;12.40;;;2.83;;
59145;SDS011;44928;53.074;6.646;2023-07-13T01:59:54;12.40;;;2.88;;
59145;SDS011;44928;53.074;6.646;2023-07-13T02:02:20;17.10;;;3.13;;
59145;SDS011;44928;53.074;6.646;2023-07-13T02:04:46;15.00;;;3.25;;
59145;SDS011;44928;53.074;6.646;2023-07-13T02:07:12;16.85;;;3.90;;
59145;SDS011;44928;53.074;6.646;2023-07-13T02:09:37;15.23;;;3.45;;
59145;SDS011;44928;53.074;6.646;2023-07-13T02:12:04;13.50;;;3.30;;
59145;SDS011;44928;53.074;6.646;2023-07-13T02:14:30;10.25;;;2.65;;
59145;SDS011;44928;53.074;6.646;2023-07-13T02:16:56;14.07;;;3.25;;
59145;SDS011;44928;53.074;6.646;2023-07-13T02:19:22;14.80;;;3.20;;
59145;SDS011;44928;53.074;6.646;2023-07-13T02:21:47;11.07;;;2.58;;
59145;SDS011;44928;53.074;6.646;2023-07-13T02:24:14;12.02;;;3.28;;
59145;SDS011;44928;53.074;6.646;2023-07-13T02:26:43;12.85;;;3.28;;
59145;SDS011;44928;53.074;6.646;2023-07-13T02:29:09;11.43;;;3.08;;
59145;SDS011;44928;53.074;6.646;2023-07-13T02:31:35;10.68;;;2.53;;
59145;SDS011;44928;53.074;6.646;2023-07-13T02:34:01;12.02;;;2.85;;
59145;SDS011;44928;53.074;6.646;2023-07-13T02:36:28;11.20;;;2.55;;
59145;SDS011;44928;53.074;6.646;2023-07-13T02:38:54;14.65;;;2.78;;
59145;SDS011;44928;53.074;6.646;2023-07-13T02:41:20;9.82;;;2.58;;
59145;SDS011;44928;53.074;6.646;2023-07-13T02:43:46;12.38;;;2.70;;
59145;SDS011;44928;53.074;6.646;2023-07-13T02:46:11;13.55;;;3.00;;
59145;SDS011;44928;53.074;6.646;2023-07-13T02:48:38;10.18;;;2.70;;
59145;SDS011;44928;53.074;6.646;2023-07-13T02:51:04;12.05;;;2.58;;
59145;SDS011;44928;53.074;6.646;2023-07-13T02:53:31;13.70;;;2.40;;
59145;SDS011;44928;53.074;6.646;2023-07-13T02:55:57;9.85;;;3.13;;
59145;SDS011;44928;53.074;6.646;2023-07-13T02:58:23;11.50;;;2.60;;
59145;SDS011;44928;53.074;6.646;2023-07-13T03:00:48;14.10;;;2.85;;
59145;SDS011;44928;53.074;6.646;2023-07-13T03:03:15;13.70;;;2.75;;
59145;SDS011;44928;53.074;6.646;2023-07-13T03:05:42;12.35;;;2.70;;
59145;SDS011;44928;53.074;6.646;2023-07-13T03:08:10;10.20;;;2.83;;
59145;SDS011;44928;53.074;6.646;2023-07-13T03:10:36;13.45;;;3.05;;
59145;SDS011;44928;53.074;6.646;2023-07-13T03:13:04;13.30;;;3.10;;
59145;SDS011;44928;53.074;6.646;2023-07-13T03:15:31;12.10;;;3.00;;
59145;SDS011;44928;53.074;6.646;2023-07-13T03:17:56;14.68;;;2.65;;
59145;SDS011;44928;53.074;6.646;2023-07-13T03:20:22;11.95;;;2.70;;
59145;SDS011;44928;53.074;6.646;2023-07-13T03:22:48;11.65;;;3.10;;
59145;SDS011;44928;53.074;6.646;2023-07-13T03:25:14;14.05;;;3.15;;
59145;SDS011;44928;53.074;6.646;2023-07-13T03:27:40;14.98;;;3.13;;
59145;SDS011;44928;53.074;6.646;2023-07-13T03:30:06;13.48;;;3.28;;
59145;SDS011;44928;53.074;6.646;2023-07-13T03:32:32;11.85;;;2.72;;
59145;SDS011;44928;53.074;6.646;2023-07-13T03:34:58;12.32;;;3.25;;
59145;SDS011;44928;53.074;6.646;2023-07-13T03:37:24;15.43;;;3.67;;
59145;SDS011;44928;53.074;6.646;2023-07-13T03:39:50;12.23;;;2.97;;
59145;SDS011;44928;53.074;6.646;2023-07-13T03:42:16;13.95;;;3.00;;
59145;SDS011;44928;53.074;6.646;2023-07-13T03:44:42;9.85;;;2.95;;
59145;SDS011;44928;53.074;6.646;2023-07-13T03:47:17;15.20;;;3.42;;
59145;SDS011;44928;53.074;6.646;2023-07-13T03:49:43;12.23;;;2.90;;
59145;SDS011;44928;53.074;6.646;2023-07-13T03:52:10;12.60;;;3.45;;
59145;SDS011;44928;53.074;6.646;2023-07-13T03:54:36;14.80;;;3.13;;
59145;SDS011;44928;53.074;6.646;2023-07-13T03:57:02;13.20;;;3.00;;
59145;SDS011;44928;53.074;6.646;2023-07-13T03:59:28;9.68;;;2.92;;
59145;SDS011;44928;53.074;6.646;2023-07-13T04:01:54;11.98;;;2.90;;
59145;SDS011;44928;53.074;6.646;2023-07-13T04:04:20;14.68;;;3.17;;
59145;SDS011;44928;53.074;6.646;2023-07-13T04:06:46;15.02;;;3.83;;
59145;SDS011;44928;53.074;6.646;2023-07-13T04:09:12;11.40;;;3.30;;
59145;SDS011;44928;53.074;6.646;2023-07-13T04:11:38;14.88;;;3.60;;
59145;SDS011;44928;53.074;6.646;2023-07-13T04:14:04;13.15;;;3.03;;
59145;SDS011;44928;53.074;6.646;2023-07-13T04:16:30;16.05;;;2.95;;
59145;SDS011;44928;53.074;6.646;2023-07-13T04:18:56;12.10;;;3.38;;
59145;SDS011;44928;53.074;6.646;2023-07-13T04:21:25;10.18;;;3.25;;
59145;SDS011;44928;53.074;6.646;2023-07-13T04:23:52;12.02;;;2.95;;
59145;SDS011;44928;53.074;6.646;2023-07-13T04:26:18;13.95;;;3.20;;
59145;SDS011;44928;53.074;6.646;2023-07-13T04:28:48;11.52;;;3.10;;
59145;SDS011;44928;53.074;6.646;2023-07-13T04:31:14;12.35;;;3.33;;
59145;SDS011;44928;53.074;6.646;2023-07-13T04:33:41;10.63;;;3.08;;
59145;SDS011;44928;53.074;6.646;2023-07-13T04:36:08;13.63;;;3.38;;
59145;SDS011;44928;53.074;6.646;2023-07-13T04:38:35;13.43;;;2.83;;
59145;SDS011;44928;53.074;6.646;2023-07-13T04:41:02;15.77;;;3.47;;
59145;SDS011;44928;53.074;6.646;2023-07-13T04:43:31;13.73;;;3.17;;
59145;SDS011;44928;53.074;6.646;2023-07-13T04:45:57;14.93;;;3.20;;
59145;SDS011;44928;53.074;6.646;2023-07-13T04:48:29;12.15;;;3.13;;
59145;SDS011;44928;53.074;6.646;2023-07-13T04:50:56;13.52;;;3.25;;
59145;SDS011;44928;53.074;6.646;2023-07-13T04:53:23;14.15;;;3.08;;
59145;SDS011;44928;53.074;6.646;2023-07-13T04:55:49;13.40;;;3.08;;
59145;SDS011;44928;53.074;6.646;2023-07-13T04:58:15;15.32;;;3.33;;
59145;SDS011;44928;53.074;6.646;2023-07-13T05:00:41;18.17;;;3.53;;
59145;SDS011;44928;53.074;6.646;2023-07-13T05:03:09;15.30;;;3.38;;
59145;SDS011;44928;53.074;6.646;2023-07-13T05:05:35;15.70;;;3.72;;
59145;SDS011;44928;53.074;6.646;2023-07-13T05:08:01;11.88;;;3.08;;
59145;SDS011;44928;53.074;6.646;2023-07-13T05:10:27;14.02;;;3.17;;
59145;SDS011;44928;53.074;6.646;2023-07-13T05:12:53;11.18;;;3.08;;
59145;SDS011;44928;53.074;6.646;2023-07-13T05:15:20;16.70;;;3.75;;
59145;SDS011;44928;53.074;6.646;2023-07-13T05:17:48;14.68;;;3.85;;
59145;SDS011;44928;53.074;6.646;2023-07-13T05:20:14;12.40;;;3.60;;
59145;SDS011;44928;53.074;6.646;2023-07-13T05:22:41;15.00;;;3.40;;
59145;SDS011;44928;53.074;6.646;2023-07-13T05:25:08;13.93;;;3.60;;
59145;SDS011;44928;53.074;6.646;2023-07-13T05:27:34;13.93;;;3.25;;
59145;SDS011;44928;53.074;6.646;2023-07-13T05:30:02;10.48;;;3.10;;
59145;SDS011;44928;53.074;6.646;2023-07-13T05:32:29;13.80;;;3.05;;
59145;SDS011;44928;53.074;6.646;2023-07-13T05:34:54;12.30;;;3.33;;
59145;SDS011;44928;53.074;6.646;2023-07-13T05:37:20;13.48;;;3.13;;
59145;SDS011;44928;53.074;6.646;2023-07-13T05:39:46;13.30;;;3.65;;
59145;SDS011;44928;53.074;6.646;2023-07-13T05:42:12;13.60;;;2.97;;
59145;SDS011;44928;53.074;6.646;2023-07-13T05:44:42;18.05;;;3.72;;
59145;SDS011;44928;53.074;6.646;2023-07-13T05:47:07;12.93;;;3.28;;
59145;SDS011;44928;53.074;6.646;2023-07-13T05:49:33;15.18;;;3.08;;
59145;SDS011;44928;53.074;6.646;2023-07-13T05:51:59;13.82;;;3.58;;
59145;SDS011;44928;53.074;6.646;2023-07-13T05:54:26;12.70;;;2.95;;
59145;SDS011;44928;53.074;6.646;2023-07-13T05:56:52;13.65;;;3.08;;
59145;SDS011;44928;53.074;6.646;2023-07-13T05:59:18;12.18;;;3.28;;
59145;SDS011;44928;53.074;6.646;2023-07-13T06:01:44;12.30;;;3.38;;
59145;SDS011;44928;53.074;6.646;2023-07-13T06:04:10;13.52;;;3.05;;
59145;SDS011;44928;53.074;6.646;2023-07-13T06:06:36;11.38;;;3.00;;
59145;SDS011;44928;53.074;6.646;2023-07-13T06:09:01;11.05;;;2.60;;
59145;SDS011;44928;53.074;6.646;2023-07-13T06:11:27;13.27;;;3.95;;
59145;SDS011;44928;53.074;6.646;2023-07-13T06:13:55;12.10;;;2.78;;
59145;SDS011;44928;53.074;6.646;2023-07-13T06:16:21;11.88;;;2.85;;
59145;SDS011;44928;53.074;6.646;2023-07-13T06:18:48;12.18;;;2.75;;
59145;SDS011;44928;53.074;6.646;2023-07-13T06:21:23;14.23;;;3.10;;
59145;SDS011;44928;53.074;6.646;2023-07-13T06:23:49;11.82;;;3.13;;
59145;SDS011;44928;53.074;6.646;2023-07-13T06:26:17;12.25;;;3.13;;
59145;SDS011;44928;53.074;6.646;2023-07-13T06:28:44;15.88;;;2.88;;
59145;SDS011;44928;53.074;6.646;2023-07-13T06:31:10;12.20;;;3.45;;
59145;SDS011;44928;53.074;6.646;2023-07-13T06:33:37;11.55;;;2.75;;
59145;SDS011;44928;53.074;6.646;2023-07-13T06:36:04;10.18;;;2.65;;
59145;SDS011;44928;53.074;6.646;2023-07-13T06:38:31;15.82;;;3.22;;
59145;SDS011;44928;53.074;6.646;2023-07-13T06:40:57;11.77;;;3.00;;
59145;SDS011;44928;53.074;6.646;2023-07-13T06:43:23;12.07;;;2.83;;
59145;SDS011;44928;53.074;6.646;2023-07-13T06:45:50;12.88;;;3.10;;
59145;SDS011;44928;53.074;6.646;2023-07-13T06:48:17;12.32;;;3.00;;
59145;SDS011;44928;53.074;6.646;2023-07-13T06:50:44;11.52;;;2.47;;
59145;SDS011;44928;53.074;6.646;2023-07-13T06:53:12;15.07;;;3.00;;
59145;SDS011;44928;53.074;6.646;2023-07-13T06:55:38;12.23;;;3.10;;
59145;SDS011;44928;53.074;6.646;2023-07-13T06:58:04;11.57;;;2.53;;
59145;SDS011;44928;53.074;6.646;2023-07-13T07:00:30;11.93;;;2.30;;
59145;SDS011;44928;53.074;6.646;2023-07-13T07:02:56;9.43;;;2.40;;
59145;SDS011;44928;53.074;6.646;2023-07-13T07:05:22;10.20;;;2.20;;
59145;SDS011;44928;53.074;6.646;2023-07-13T07:07:52;11.25;;;2.17;;
59145;SDS011;44928;53.074;6.646;2023-07-13T07:12:45;8.45;;;2.10;;
59145;SDS011;44928;53.074;6.646;2023-07-13T07:15:11;14.40;;;2.90;;
59145;SDS011;44928;53.074;6.646;2023-07-13T07:17:38;9.98;;;2.33;;
59145;SDS011;44928;53.074;6.646;2023-07-13T07:20:04;12.15;;;2.53;;
59145;SDS011;44928;53.074;6.646;2023-07-13T07:22:31;9.65;;;1.92;;
59145;SDS011;44928;53.074;6.646;2023-07-13T07:24:57;9.95;;;2.22;;
59145;SDS011;44928;53.074;6.646;2023-07-13T07:27:23;10.30;;;2.00;;
59145;SDS011;44928;53.074;6.646;2023-07-13T07:29:50;10.55;;;2.67;;
59145;SDS011;44928;53.074;6.646;2023-07-13T07:32:16;7.28;;;2.13;;
59145;SDS011;44928;53.074;6.646;2023-07-13T07:34:42;8.07;;;1.63;;
59145;SDS011;44928;53.074;6.646;2023-07-13T07:37:12;7.18;;;1.60;;
59145;SDS011;44928;53.074;6.646;2023-07-13T07:39:38;6.43;;;1.75;;
59145;SDS011;44928;53.074;6.646;2023-07-13T07:42:04;8.48;;;1.80;;
59145;SDS011;44928;53.074;6.646;2023-07-13T07:44:31;11.90;;;2.20;;
59145;SDS011;44928;53.074;6.646;2023-07-13T07:46:58;10.10;;;1.90;;
59145;SDS011;44928;53.074;6.646;2023-07-13T07:49:24;8.82;;;1.70;;
59145;SDS011;44928;53.074;6.646;2023-07-13T07:51:50;8.45;;;1.63;;
59145;SDS011;44928;53.074;6.646;2023-07-13T07:54:16;8.63;;;2.17;;
59145;SDS011;44928;53.074;6.646;2023-07-13T07:56:42;10.02;;;1.95;;
59145;SDS011;44928;53.074;6.646;2023-07-13T07:59:08;8.18;;;1.80;;
59145;SDS011;44928;53.074;6.646;2023-07-13T08:01:34;10.82;;;2.10;;
59145;SDS011;44928;53.074;6.646;2023-07-13T08:04:00;9.57;;;2.20;;
59145;SDS011;44928;53.074;6.646;2023-07-13T08:06:26;9.23;;;2.03;;
59145;SDS011;44928;53.074;6.646;2023-07-13T08:08:52;7.53;;;1.88;;
59145;SDS011;44928;53.074;6.646;2023-07-13T08:11:18;9.32;;;1.60;;
59145;SDS011;44928;53.074;6.646;2023-07-13T08:13:45;8.07;;;2.13;;
59145;SDS011;44928;53.074;6.646;2023-07-13T08:16:11;7.97;;;1.92;;
59145;SDS011;44928;53.074;6.646;2023-07-13T08:18:37;11.13;;;1.90;;
59145;SDS011;44928;53.074;6.646;2023-07-13T08:21:06;11.18;;;2.40;;
59145;SDS011;44928;53.074;6.646;2023-07-13T08:23:33;8.75;;;2.03;;
59145;SDS011;44928;53.074;6.646;2023-07-13T08:26:00;8.77;;;1.83;;
59145;SDS011;44928;53.074;6.646;2023-07-13T08:28:27;11.32;;;2.20;;
59145;SDS011;44928;53.074;6.646;2023-07-13T08:30:53;8.85;;;2.15;;
59145;SDS011;44928;53.074;6.646;2023-07-13T08:33:19;12.88;;;2.42;;
59145;SDS011;44928;53.074;6.646;2023-07-13T08:35:47;9.60;;;2.22;;
59145;SDS011;44928;53.074;6.646;2023-07-13T08:38:13;9.25;;;2.90;;
59145;SDS011;44928;53.074;6.646;2023-07-13T08:40:40;11.15;;;2.88;;
59145;SDS011;44928;53.074;6.646;2023-07-13T08:43:09;12.30;;;2.80;;
59145;SDS011;44928;53.074;6.646;2023-07-13T08:45:47;13.32;;;2.58;;
59145;SDS011;44928;53.074;6.646;2023-07-13T08:48:23;10.20;;;2.15;;
59145;SDS011;44928;53.074;6.646;2023-07-13T08:50:58;8.98;;;2.03;;
59145;SDS011;44928;53.074;6.646;2023-07-13T08:54:01;7.95;;;1.63;;
59145;SDS011;44928;53.074;6.646;2023-07-13T08:56:30;8.40;;;1.90;;
59145;SDS011;44928;53.074;6.646;2023-07-13T08:59:02;8.55;;;2.00;;
59145;SDS011;44928;53.074;6.646;2023-07-13T09:04:16;8.00;;;2.03;;
59145;SDS011;44928;53.074;6.646;2023-07-13T09:15:07;7.53;;;1.70;;
59145;SDS011;44928;53.074;6.646;2023-07-13T09:17:48;7.15;;;1.73;;
59145;SDS011;44928;53.074;6.646;2023-07-13T09:22:48;4.93;;;1.50;;
59145;SDS011;44928;53.074;6.646;2023-07-13T09:27:47;7.28;;;2.05;;
59145;SDS011;44928;53.074;6.646;2023-07-13T09:32:40;8.30;;;2.05;;
59145;SDS011;44928;53.074;6.646;2023-07-13T09:35:13;5.78;;;1.90;;
59145;SDS011;44928;53.074;6.646;2023-07-13T09:37:44;6.50;;;1.70;;
59145;SDS011;44928;53.074;6.646;2023-07-13T09:40:12;7.18;;;2.10;;
59145;SDS011;44928;53.074;6.646;2023-07-13T09:42:52;11.00;;;2.50;;
59145;SDS011;44928;53.074;6.646;2023-07-13T09:45:27;9.35;;;2.40;;
59145;SDS011;44928;53.074;6.646;2023-07-13T09:48:03;8.27;;;2.38;;
59145;SDS011;44928;53.074;6.646;2023-07-13T09:50:34;9.45;;;2.45;;
59145;SDS011;44928;53.074;6.646;2023-07-13T09:53:00;8.95;;;2.53;;
59145;SDS011;44928;53.074;6.646;2023-07-13T09:55:39;9.00;;;2.42;;
59145;SDS011;44928;53.074;6.646;2023-07-13T10:00:36;8.43;;;2.63;;
59145;SDS011;44928;53.074;6.646;2023-07-13T10:03:09;9.57;;;3.10;;
59145;SDS011;44928;53.074;6.646;2023-07-13T10:05:40;10.32;;;3.28;;
59145;SDS011;44928;53.074;6.646;2023-07-13T10:10:57;9.45;;;3.00;;
59145;SDS011;44928;53.074;6.646;2023-07-13T10:13:26;11.32;;;3.20;;
59145;SDS011;44928;53.074;6.646;2023-07-13T10:16:04;10.48;;;3.42;;
59145;SDS011;44928;53.074;6.646;2023-07-13T10:18:34;9.75;;;2.90;;
59145;SDS011;44928;53.074;6.646;2023-07-13T10:21:15;9.00;;;2.75;;
59145;SDS011;44928;53.074;6.646;2023-07-13T10:23:44;7.43;;;2.60;;
59145;SDS011;44928;53.074;6.646;2023-07-13T10:26:16;9.43;;;3.20;;
59145;SDS011;44928;53.074;6.646;2023-07-13T10:28:50;8.88;;;2.97;;
59145;SDS011;44928;53.074;6.646;2023-07-13T10:31:22;6.57;;;2.80;;
59145;SDS011;44928;53.074;6.646;2023-07-13T10:33:49;7.57;;;2.60;;
59145;SDS011;44928;53.074;6.646;2023-07-13T10:38:47;9.15;;;2.60;;
59145;SDS011;44928;53.074;6.646;2023-07-13T10:41:18;7.20;;;2.50;;
59145;SDS011;44928;53.074;6.646;2023-07-13T10:43:52;7.93;;;2.57;;
59145;SDS011;44928;53.074;6.646;2023-07-13T10:46:21;8.32;;;2.17;;
59145;SDS011;44928;53.074;6.646;2023-07-13T10:48:53;6.32;;;2.20;;
59145;SDS011;44928;53.074;6.646;2023-07-13T10:51:30;6.65;;;2.40;;
59145;SDS011;44928;53.074;6.646;2023-07-13T10:56:38;7.40;;;2.20;;
59145;SDS011;44928;53.074;6.646;2023-07-13T10:59:10;7.70;;;2.63;;
59145;SDS011;44928;53.074;6.646;2023-07-13T11:01:58;7.25;;;2.30;;
59145;SDS011;44928;53.074;6.646;2023-07-13T11:04:40;8.40;;;2.75;;
59145;SDS011;44928;53.074;6.646;2023-07-13T11:07:11;8.25;;;2.38;;
59145;SDS011;44928;53.074;6.646;2023-07-13T11:09:56;7.22;;;2.17;;
59145;SDS011;44928;53.074;6.646;2023-07-13T11:15:13;6.82;;;2.20;;
59145;SDS011;44928;53.074;6.646;2023-07-13T11:17:49;6.68;;;2.05;;
59145;SDS011;44928;53.074;6.646;2023-07-13T11:20:30;8.50;;;2.10;;
59145;SDS011;44928;53.074;6.646;2023-07-13T11:25:37;6.38;;;1.58;;
59145;SDS011;44928;53.074;6.646;2023-07-13T11:30:39;7.78;;;1.50;;
59145;SDS011;44928;53.074;6.646;2023-07-13T11:36:12;6.07;;;1.48;;
59145;SDS011;44928;53.074;6.646;2023-07-13T11:38:51;8.30;;;1.67;;
59145;SDS011;44928;53.074;6.646;2023-07-13T11:41:26;6.95;;;1.50;;
59145;SDS011;44928;53.074;6.646;2023-07-13T11:44:06;5.13;;;1.23;;
59145;SDS011;44928;53.074;6.646;2023-07-13T11:49:04;4.20;;;1.25;;
59145;SDS011;44928;53.074;6.646;2023-07-13T11:51:33;5.22;;;1.20;;
59145;SDS011;44928;53.074;6.646;2023-07-13T11:57:24;5.60;;;1.33;;
59145;SDS011;44928;53.074;6.646;2023-07-13T11:59:56;4.50;;;1.25;;
59145;SDS011;44928;53.074;6.646;2023-07-13T12:02:31;8.55;;;1.95;;
59145;SDS011;44928;53.074;6.646;2023-07-13T12:05:02;6.03;;;1.45;;
59145;SDS011;44928;53.074;6.646;2023-07-13T12:07:30;5.95;;;1.30;;
59145;SDS011;44928;53.074;6.646;2023-07-13T12:10:01;8.02;;;1.30;;
59145;SDS011;44928;53.074;6.646;2023-07-13T12:15:17;8.60;;;1.35;;
59145;SDS011;44928;53.074;6.646;2023-07-13T12:17:43;5.22;;;1.38;;
59145;SDS011;44928;53.074;6.646;2023-07-13T12:20:17;5.07;;;1.40;;
59145;SDS011;44928;53.074;6.646;2023-07-13T12:22:52;5.78;;;1.73;;
59145;SDS011;44928;53.074;6.646;2023-07-13T12:25:18;5.43;;;1.23;;
59145;SDS011;44928;53.074;6.646;2023-07-13T12:27:48;6.28;;;1.42;;
59145;SDS011;44928;53.074;6.646;2023-07-13T12:30:26;6.13;;;1.40;;
59145;SDS011;44928;53.074;6.646;2023-07-13T12:33:02;5.53;;;1.33;;
59145;SDS011;44928;53.074;6.646;2023-07-13T12:35:45;5.35;;;1.33;;
59145;SDS011;44928;53.074;6.646;2023-07-13T12:38:13;5.32;;;1.30;;
59145;SDS011;44928;53.074;6.646;2023-07-13T12:40:41;6.45;;;1.40;;
59145;SDS011;44928;53.074;6.646;2023-07-13T12:43:13;4.00;;;1.10;;
59145;SDS011;44928;53.074;6.646;2023-07-13T12:45:54;7.93;;;1.20;;
59145;SDS011;44928;53.074;6.646;2023-07-13T12:48:25;5.85;;;1.20;;
59145;SDS011;44928;53.074;6.646;2023-07-13T12:50:51;5.25;;;1.60;;
59145;SDS011;44928;53.074;6.646;2023-07-13T12:53:21;6.28;;;1.42;;
59145;SDS011;44928;53.074;6.646;2023-07-13T12:55:49;10.63;;;1.42;;
59145;SDS011;44928;53.074;6.646;2023-07-13T12:58:27;6.40;;;1.27;;
59145;SDS011;44928;53.074;6.646;2023-07-13T13:00:54;4.43;;;1.17;;
59145;SDS011;44928;53.074;6.646;2023-07-13T13:05:58;6.55;;;1.20;;
59145;SDS011;44928;53.074;6.646;2023-07-13T13:08:32;5.00;;;1.30;;
59145;SDS011;44928;53.074;6.646;2023-07-13T13:11:00;6.43;;;1.27;;
59145;SDS011;44928;53.074;6.646;2023-07-13T13:13:27;6.30;;;1.20;;
59145;SDS011;44928;53.074;6.646;2023-07-13T13:15:53;6.70;;;1.80;;
59145;SDS011;44928;53.074;6.646;2023-07-13T13:18:20;6.65;;;1.10;;
59145;SDS011;44928;53.074;6.646;2023-07-13T13:20:49;7.03;;;1.60;;
59145;SDS011;44928;53.074;6.646;2023-07-13T13:23:17;5.97;;;1.17;;
59145;SDS011;44928;53.074;6.646;2023-07-13T13:25:45;3.42;;;0.90;;
59145;SDS011;44928;53.074;6.646;2023-07-13T13:28:13;6.75;;;1.38;;
59145;SDS011;44928;53.074;6.646;2023-07-13T13:30:42;6.75;;;1.30;;
59145;SDS011;44928;53.074;6.646;2023-07-13T13:33:12;3.95;;;1.00;;
59145;SDS011;44928;53.074;6.646;2023-07-13T13:35:40;5.25;;;1.33;;
59145;SDS011;44928;53.074;6.646;2023-07-13T13:38:27;4.40;;;1.00;;
59145;SDS011;44928;53.074;6.646;2023-07-13T13:40:53;5.00;;;1.25;;
59145;SDS011;44928;53.074;6.646;2023-07-13T13:43:23;4.68;;;1.00;;
59145;SDS011;44928;53.074;6.646;2023-07-13T13:45:58;4.43;;;1.20;;
59145;SDS011;44928;53.074;6.646;2023-07-13T13:48:31;3.20;;;0.88;;
59145;SDS011;44928;53.074;6.646;2023-07-13T13:50:58;4.57;;;1.20;;
59145;SDS011;44928;53.074;6.646;2023-07-13T13:53:26;6.28;;;1.48;;
59145;SDS011;44928;53.074;6.646;2023-07-13T13:55:53;5.30;;;1.35;;
59145;SDS011;44928;53.074;6.646;2023-07-13T13:58:19;5.47;;;1.40;;
59145;SDS011;44928;53.074;6.646;2023-07-13T14:00:45;7.18;;;1.33;;
59145;SDS011;44928;53.074;6.646;2023-07-13T14:03:18;4.68;;;1.10;;
59145;SDS011;44928;53.074;6.646;2023-07-13T14:05:46;5.93;;;1.20;;
59145;SDS011;44928;53.074;6.646;2023-07-13T14:08:14;6.18;;;1.40;;
59145;SDS011;44928;53.074;6.646;2023-07-13T14:10:42;5.90;;;1.35;;
59145;SDS011;44928;53.074;6.646;2023-07-13T14:13:21;4.18;;;1.00;;
59145;SDS011;44928;53.074;6.646;2023-07-13T14:15:52;6.32;;;1.40;;
59145;SDS011;44928;53.074;6.646;2023-07-13T14:18:19;5.25;;;1.17;;
59145;SDS011;44928;53.074;6.646;2023-07-13T14:20:46;4.07;;;1.13;;
59145;SDS011;44928;53.074;6.646;2023-07-13T14:23:13;4.22;;;1.00;;
59145;SDS011;44928;53.074;6.646;2023-07-13T14:25:41;4.80;;;1.13;;
59145;SDS011;44928;53.074;6.646;2023-07-13T14:30:44;7.63;;;1.42;;
59145;SDS011;44928;53.074;6.646;2023-07-13T14:33:11;5.30;;;1.30;;
59145;SDS011;44928;53.074;6.646;2023-07-13T14:35:37;5.38;;;1.40;;
59145;SDS011;44928;53.074;6.646;2023-07-13T14:38:03;6.95;;;1.20;;
59145;SDS011;44928;53.074;6.646;2023-07-13T14:40:30;6.35;;;1.20;;
59145;SDS011;44928;53.074;6.646;2023-07-13T14:42:57;5.72;;;1.30;;
59145;SDS011;44928;53.074;6.646;2023-07-13T14:45:23;5.75;;;1.25;;
59145;SDS011;44928;53.074;6.646;2023-07-13T14:47:50;4.95;;;1.67;;
59145;SDS011;44928;53.074;6.646;2023-07-13T14:50:24;8.75;;;1.65;;
59145;SDS011;44928;53.074;6.646;2023-07-13T14:52:55;6.20;;;1.38;;
59145;SDS011;44928;53.074;6.646;2023-07-13T14:55:21;5.20;;;1.20;;
59145;SDS011;44928;53.074;6.646;2023-07-13T14:57:48;5.35;;;1.30;;
59145;SDS011;44928;53.074;6.646;2023-07-13T15:00:16;6.55;;;1.70;;
59145;SDS011;44928;53.074;6.646;2023-07-13T15:02:53;4.10;;;1.10;;
59145;SDS011;44928;53.074;6.646;2023-07-13T15:05:23;8.95;;;1.55;;
59145;SDS011;44928;53.074;6.646;2023-07-13T15:07:51;6.32;;;1.52;;
59145;SDS011;44928;53.074;6.646;2023-07-13T15:10:22;4.55;;;1.05;;
59145;SDS011;44928;53.074;6.646;2023-07-13T15:12:58;5.45;;;1.20;;
59145;SDS011;44928;53.074;6.646;2023-07-13T15:15:26;8.20;;;1.40;;
59145;SDS011;44928;53.074;6.646;2023-07-13T15:17:58;5.55;;;1.40;;
59145;SDS011;44928;53.074;6.646;2023-07-13T15:20:29;5.88;;;1.40;;
59145;SDS011;44928;53.074;6.646;2023-07-13T15:23:00;5.95;;;1.17;;
59145;SDS011;44928;53.074;6.646;2023-07-13T15:25:27;5.50;;;1.60;;
59145;SDS011;44928;53.074;6.646;2023-07-13T15:27:56;7.60;;;1.40;;
59145;SDS011;44928;53.074;6.646;2023-07-13T15:30:25;6.78;;;1.50;;
59145;SDS011;44928;53.074;6.646;2023-07-13T15:35:20;6.68;;;1.40;;
59145;SDS011;44928;53.074;6.646;2023-07-13T15:37:48;7.25;;;1.63;;
59145;SDS011;44928;53.074;6.646;2023-07-13T15:40:15;6.28;;;1.40;;
59145;SDS011;44928;53.074;6.646;2023-07-13T15:42:42;7.43;;;1.85;;
59145;SDS011;44928;53.074;6.646;2023-07-13T15:45:19;8.23;;;1.70;;
59145;SDS011;44928;53.074;6.646;2023-07-13T15:47:48;6.35;;;1.48;;
59145;SDS011;44928;53.074;6.646;2023-07-13T15:50:22;6.88;;;1.83;;
59145;SDS011;44928;53.074;6.646;2023-07-13T15:52:52;6.50;;;1.33;;